Time;durP1;ratioP1;P1;durP2;ratioP2;P2;SDS_P1;SDS_P2;PMS_P1;PMS_P2;Temp;Humidity;BMP_temperature;BMP_pressure;BME280_temperature;BME280_humidity;BME280_pressure;Samples;Min_cycle;Max_cycle;Signal;HPM_P1;HPM_P2
2022/07/26 00:01:20;;;;;;;7.47;2.95;;;18.80;82.10;;;;;;5098427;28;20047;-76
2022/07/26 00:03:47;;;;;;;3.55;2.60;;;18.80;82.10;;;;;;5115337;28;20038;-76
2022/07/26 00:06:12;;;;;;;11.90;3.28;;;18.80;82.10;;;;;;5115302;28;20123;-78
2022/07/26 00:08:38;;;;;;;5.15;2.88;;;18.80;82.10;;;;;;5132708;28;20067;-76
2022/07/26 00:11:04;;;;;;;8.60;3.00;;;18.80;82.20;;;;;;5115539;28;20122;-76
2022/07/26 00:13:30;;;;;;;9.48;2.60;;;18.90;82.20;;;;;;5115172;28;20039;-79
2022/07/26 00:15:57;;;;;;;5.05;3.20;;;18.90;82.30;;;;;;5117640;27;20055;-76
2022/07/26 00:18:23;;;;;;;4.25;2.92;;;19.00;82.20;;;;;;5119292;27;20039;-78
2022/07/26 00:20:49;;;;;;;5.15;2.85;;;19.00;82.40;;;;;;5102274;27;20070;-79
2022/07/26 00:23:14;;;;;;;10.27;3.78;;;19.00;82.50;;;;;;5102275;27;20119;-76
2022/07/26 00:25:41;;;;;;;6.97;3.05;;;18.90;82.50;;;;;;5119455;27;20221;-77
2022/07/26 00:28:06;;;;;;;5.30;2.72;;;18.90;82.80;;;;;;5102091;27;20055;-80
2022/07/26 00:30:33;;;;;;;6.80;3.25;;;18.90;83.10;;;;;;5119140;27;20510;-78
2022/07/26 00:32:59;;;;;;;4.40;2.97;;;18.80;83.10;;;;;;5118979;27;20070;-77
2022/07/26 00:35:25;;;;;;;6.13;3.20;;;18.80;83.40;;;;;;5118918;27;20183;-80
2022/07/26 00:37:50;;;;;;;6.45;5.07;;;18.80;83.40;;;;;;5119369;27;20075;-78
2022/07/26 00:40:17;;;;;;;17.95;16.08;;;18.80;83.40;;;;;;5118913;27;20138;-78
2022/07/26 00:42:43;;;;;;;51.72;46.42;;;18.70;83.50;;;;;;5118935;27;20080;-76
2022/07/26 00:45:10;;;;;;;7.45;4.68;;;18.70;83.70;;;;;;5118714;27;20039;-77
2022/07/26 00:47:36;;;;;;;7.70;3.33;;;18.70;83.70;;;;;;5118635;27;20122;-75
2022/07/26 00:50:08;;;;;;;7.57;3.03;;;18.70;83.90;;;;;;5118674;27;20122;-78
2022/07/26 00:52:33;;;;;;;5.65;2.58;;;18.70;84.20;;;;;;5118716;27;20494;-78
2022/07/26 00:54:59;;;;;;;5.78;2.92;;;18.70;84.10;;;;;;5118524;27;20039;-76
2022/07/26 00:57:25;;;;;;;5.97;3.40;;;18.70;84.40;;;;;;5118670;27;20460;-77
2022/07/26 00:59:51;;;;;;;4.63;2.35;;;18.70;84.60;;;;;;5118480;27;20043;-78
2022/07/26 01:02:17;;;;;;;6.35;2.70;;;18.70;84.60;;;;;;5118477;27;20135;-77
2022/07/26 01:04:44;;;;;;;9.52;3.15;;;18.70;84.60;;;;;;5101380;27;20039;-78
2022/07/26 01:07:10;;;;;;;4.72;2.83;;;18.60;84.80;;;;;;5118468;27;20534;-77
2022/07/26 01:09:37;;;;;;;6.88;2.85;;;18.60;84.90;;;;;;5118314;27;20509;-79
2022/07/26 01:12:03;;;;;;;5.78;2.90;;;18.60;84.90;;;;;;5101647;27;20506;-77
2022/07/26 01:14:29;;;;;;;8.98;3.33;;;18.60;85.00;;;;;;5118095;27;20127;-80
2022/07/26 01:16:55;;;;;;;6.82;2.78;;;18.60;85.00;;;;;;5118196;27;20032;-77
2022/07/26 01:19:21;;;;;;;10.80;3.53;;;18.60;85.10;;;;;;5118061;27;20122;-81
2022/07/26 01:21:47;;;;;;;4.82;2.30;;;18.60;85.10;;;;;;5101199;27;20072;-78
2022/07/26 01:24:13;;;;;;;7.65;2.55;;;18.60;85.20;;;;;;5118284;27;20035;-77
2022/07/26 01:26:39;;;;;;;8.43;2.78;;;18.60;85.10;;;;;;5116993;27;20448;-78
2022/07/26 01:29:04;;;;;;;7.50;2.58;;;18.60;85.00;;;;;;5117874;27;20066;-76
2022/07/26 01:31:31;;;;;;;8.27;2.55;;;18.60;85.00;;;;;;5117996;27;20047;-77
2022/07/26 01:33:58;;;;;;;9.35;2.75;;;18.60;85.10;;;;;;5117746;27;20099;-77
2022/07/26 01:36:24;;;;;;;5.45;2.75;;;18.60;85.00;;;;;;5117838;27;20077;-80
2022/07/26 01:38:50;;;;;;;7.13;2.83;;;18.60;85.10;;;;;;5117865;27;20067;-79
2022/07/26 01:41:16;;;;;;;6.30;3.47;;;18.60;85.10;;;;;;5117801;27;20043;-79
2022/07/26 01:43:41;;;;;;;16.05;3.42;;;18.50;85.20;;;;;;5117614;27;20043;-78
2022/07/26 01:46:08;;;;;;;7.60;3.75;;;18.50;85.20;;;;;;5117490;27;20117;-77
2022/07/26 01:48:35;;;;;;;5.75;2.60;;;18.50;85.20;;;;;;5117580;27;20043;-80
2022/07/26 01:51:01;;;;;;;7.68;2.65;;;18.60;85.30;;;;;;5117633;27;20118;-77
2022/07/26 01:53:27;;;;;;;6.65;2.63;;;18.60;85.60;;;;;;5117535;27;20046;-77
2022/07/26 01:55:53;;;;;;;7.50;2.42;;;18.50;86.00;;;;;;5117320;27;20036;-78
2022/07/26 01:58:18;;;;;;;7.57;2.40;;;18.40;86.30;;;;;;5100303;27;20075;-77
2022/07/26 02:00:44;;;;;;;6.72;2.47;;;18.30;87.00;;;;;;5117327;27;20035;-79
2022/07/26 02:03:10;;;;;;;5.88;2.70;;;18.20;87.10;;;;;;5117552;27;20040;-80
2022/07/26 02:05:36;;;;;;;5.50;1.80;;;18.10;87.60;;;;;;5117262;27;20479;-77
2022/07/26 02:08:01;;;;;;;7.03;2.60;;;18.10;87.70;;;;;;5100227;27;20054;-78
2022/07/26 02:10:59;;;;;;;7.75;2.47;;;18.10;88.00;;;;;;5100105;27;20039;-78
2022/07/26 02:13:13;;;;;;;10.38;2.60;;;18.10;87.90;;;;;;5088732;27;20065;-75
2022/07/26 02:15:39;;;;;;;7.18;2.47;;;18.00;88.00;;;;;;5134049;27;20039;-77
2022/07/26 02:18:05;;;;;;;6.88;1.77;;;18.00;88.20;;;;;;5117036;27;20042;-78
2022/07/26 02:20:32;;;;;;;6.22;2.00;;;18.00;87.70;;;;;;5117043;27;20035;-79
2022/07/26 02:23:01;;;;;;;8.02;2.00;;;18.00;87.60;;;;;;5117141;27;20100;-80
2022/07/26 02:25:27;;;;;;;9.02;2.13;;;17.90;87.60;;;;;;5116697;27;20487;-80
2022/07/26 02:27:53;;;;;;;8.45;2.17;;;17.80;87.40;;;;;;5133722;27;20051;-75
2022/07/26 02:30:19;;;;;;;6.20;1.92;;;17.80;87.40;;;;;;5117048;27;20051;-77
2022/07/26 02:32:44;;;;;;;8.43;2.03;;;17.90;87.00;;;;;;5099789;27;20047;-76
2022/07/26 02:35:10;;;;;;;5.20;1.70;;;17.80;87.00;;;;;;5099591;27;20376;-77
2022/07/26 02:37:39;;;;;;;7.38;2.08;;;17.80;87.00;;;;;;5099566;27;20042;-79
2022/07/26 02:40:05;;;;;;;6.53;2.13;;;17.80;87.30;;;;;;5099537;27;20070;-80
2022/07/26 02:42:31;;;;;;;6.70;2.08;;;17.70;86.90;;;;;;5116651;27;20118;-76
2022/07/26 02:44:57;;;;;;;6.20;1.80;;;17.70;87.10;;;;;;5082618;27;20126;-76
2022/07/26 02:47:23;;;;;;;5.60;2.17;;;17.70;87.00;;;;;;5099434;27;20113;-79
2022/07/26 02:49:48;;;;;;;7.57;1.73;;;17.70;86.60;;;;;;5133625;27;20043;-76
2022/07/26 02:52:14;;;;;;;4.57;1.85;;;17.70;86.30;;;;;;5133534;27;20039;-77
2022/07/26 02:54:40;;;;;;;4.38;1.75;;;17.70;86.10;;;;;;5116353;27;20159;-80
2022/07/26 02:57:05;;;;;;;6.78;1.85;;;17.70;86.10;;;;;;5116272;27;20482;-77
2022/07/26 02:59:31;;;;;;;8.98;1.63;;;17.70;86.00;;;;;;5116161;27;20035;-79
2022/07/26 03:01:57;;;;;;;6.13;1.92;;;17.70;85.90;;;;;;5116196;27;20065;-77
2022/07/26 03:04:23;;;;;;;4.30;1.30;;;17.60;85.90;;;;;;5099486;27;20074;-78
2022/07/26 03:06:49;;;;;;;5.68;1.42;;;17.60;85.50;;;;;;5099137;27;20549;-77
2022/07/26 03:09:14;;;;;;;4.90;1.38;;;17.60;85.40;;;;;;5099327;27;20039;-77
2022/07/26 03:11:40;;;;;;;6.78;1.65;;;17.60;85.40;;;;;;5133095;27;20054;-78
2022/07/26 03:14:06;;;;;;;5.45;1.20;;;17.50;85.30;;;;;;5115887;27;20035;-80
2022/07/26 03:16:32;;;;;;;2.88;1.20;;;17.50;85.20;;;;;;5082400;27;20044;-77
2022/07/26 03:19:00;;;;;;;3.97;1.20;;;17.50;85.10;;;;;;5115826;27;20395;-78
2022/07/26 03:21:25;;;;;;;6.07;1.30;;;17.50;85.10;;;;;;5116063;27;20494;-79
2022/07/26 03:23:52;;;;;;;4.65;1.48;;;17.50;85.10;;;;;;5115687;27;20137;-77
2022/07/26 03:26:18;;;;;;;3.90;1.38;;;17.50;85.20;;;;;;5115784;27;20096;-77
2022/07/26 03:28:43;;;;;;;7.15;1.10;;;17.50;85.20;;;;;;5081789;27;20059;-79
2022/07/26 03:31:11;;;;;;;4.38;1.45;;;17.50;85.30;;;;;;5115781;27;20046;-80
2022/07/26 03:33:40;;;;;;;4.35;1.20;;;17.50;85.20;;;;;;5099192;27;20070;-77
2022/07/26 03:36:06;;;;;;;8.15;1.20;;;17.50;85.20;;;;;;5115610;27;20482;-76
2022/07/26 03:38:32;;;;;;;7.22;1.38;;;17.50;84.90;;;;;;5115430;28;20035;-80
2022/07/26 03:40:58;;;;;;;2.42;1.17;;;17.50;84.80;;;;;;5081594;28;20181;-79
2022/07/26 03:43:23;;;;;;;4.43;1.10;;;17.50;84.90;;;;;;5132800;27;20039;-78
2022/07/26 03:45:49;;;;;;;7.35;1.80;;;17.50;85.10;;;;;;5098208;28;20402;-77
2022/07/26 03:48:15;;;;;;;4.68;1.40;;;17.50;85.10;;;;;;5115201;28;20043;-79
2022/07/26 03:50:41;;;;;;;5.55;1.10;;;17.40;85.20;;;;;;5080751;28;20126;-78
2022/07/26 03:53:07;;;;;;;5.18;1.08;;;17.50;85.10;;;;;;5098146;28;20074;-76
2022/07/26 03:58:18;;;;;;;6.97;1.35;;;17.60;83.70;;;;;;5132113;28;20045;-79
2022/07/26 04:00:44;;;;;;;3.35;1.15;;;17.60;83.20;;;;;;5132607;28;20038;-76
2022/07/26 04:03:09;;;;;;;5.05;1.30;;;17.50;83.70;;;;;;5115364;28;20039;-78
2022/07/26 04:05:35;;;;;;;3.38;1.27;;;17.40;83.80;;;;;;5115269;28;20092;-77
2022/07/26 04:08:01;;;;;;;4.07;1.20;;;17.30;83.50;;;;;;5115403;28;20079;-78
2022/07/26 04:10:26;;;;;;;4.20;1.10;;;17.30;83.20;;;;;;5098290;28;20115;-76
2022/07/26 04:12:52;;;;;;;5.13;1.02;;;17.40;82.90;;;;;;5115288;28;20046;-76
2022/07/26 04:15:19;;;;;;;6.38;1.35;;;17.30;82.90;;;;;;5098050;28;20043;-77
2022/07/26 04:17:47;;;;;;;5.30;0.98;;;17.40;82.90;;;;;;5098677;28;20121;-77
2022/07/26 04:20:13;;;;;;;5.38;1.30;;;17.30;83.00;;;;;;5098734;28;20062;-76
2022/07/26 04:22:39;;;;;;;6.55;1.20;;;17.30;83.20;;;;;;5115180;28;20478;-78
2022/07/26 04:25:06;;;;;;;4.53;1.25;;;17.30;83.50;;;;;;5098178;28;20043;-79
2022/07/26 04:27:32;;;;;;;4.78;1.35;;;17.30;83.40;;;;;;5114973;28;20491;-79
2022/07/26 04:29:58;;;;;;;9.60;1.90;;;17.30;83.70;;;;;;5115156;28;20522;-77
2022/07/26 04:32:24;;;;;;;5.25;1.20;;;17.20;83.70;;;;;;5115097;28;20039;-77
2022/07/26 04:34:49;;;;;;;9.32;1.20;;;17.30;83.40;;;;;;5114782;28;20075;-79
2022/07/26 04:37:15;;;;;;;4.60;1.23;;;17.30;83.60;;;;;;5115085;28;20037;-79
2022/07/26 04:39:41;;;;;;;7.10;1.33;;;17.20;83.90;;;;;;5098024;28;20035;-79
2022/07/26 04:42:06;;;;;;;7.45;1.60;;;17.10;84.30;;;;;;5115376;28;20039;-77
2022/07/26 04:44:32;;;;;;;7.05;1.27;;;17.00;84.40;;;;;;5115181;28;20386;-81
2022/07/26 04:46:58;;;;;;;5.45;1.30;;;17.00;84.50;;;;;;5114982;28;20498;-76
2022/07/26 04:49:26;;;;;;;7.55;1.13;;;17.00;84.60;;;;;;5115174;28;20039;-80
2022/07/26 04:51:52;;;;;;;5.25;1.10;;;17.10;84.30;;;;;;5114991;28;20502;-76
2022/07/26 04:54:21;;;;;;;5.57;1.10;;;17.00;84.10;;;;;;5097970;28;20066;-78
2022/07/26 04:56:50;;;;;;;7.32;1.58;;;17.00;84.00;;;;;;5114892;28;20035;-76
2022/07/26 04:59:16;;;;;;;3.90;1.08;;;17.10;83.80;;;;;;5114902;28;20047;-76
2022/07/26 05:01:43;;;;;;;5.40;0.90;;;17.10;83.90;;;;;;5115035;27;20118;-76
2022/07/26 05:04:09;;;;;;;3.67;1.00;;;17.20;83.60;;;;;;5118617;27;20038;-76
2022/07/26 05:06:35;;;;;;;7.55;1.20;;;17.20;83.50;;;;;;5118371;27;20482;-78
2022/07/26 05:09:01;;;;;;;2.63;0.95;;;17.20;83.30;;;;;;5101361;27;20054;-80
2022/07/26 05:11:27;;;;;;;2.70;1.00;;;17.20;83.30;;;;;;5118316;27;20050;-77
2022/07/26 05:13:53;;;;;;;5.25;1.00;;;17.20;82.80;;;;;;5118094;27;20039;-80
2022/07/26 05:16:18;;;;;;;4.72;1.20;;;17.30;82.60;;;;;;5101543;27;20099;-78
2022/07/26 05:18:44;;;;;;;7.30;1.58;;;17.30;82.60;;;;;;5118154;27;20079;-77
2022/07/26 05:21:10;;;;;;;3.80;0.77;;;17.30;82.40;;;;;;5118218;27;20039;-77
2022/07/26 05:23:35;;;;;;;5.18;1.42;;;17.30;82.80;;;;;;5101122;27;20039;-78
2022/07/26 05:26:01;;;;;;;2.65;1.08;;;17.20;82.80;;;;;;5118009;27;20043;-77
2022/07/26 05:28:27;;;;;;;4.00;1.08;;;17.10;83.10;;;;;;5117833;27;20051;-77
2022/07/26 05:30:52;;;;;;;8.68;1.70;;;17.10;83.10;;;;;;5117919;27;20047;-79
2022/07/26 05:33:18;;;;;;;4.55;1.25;;;17.00;83.50;;;;;;5118227;27;20042;-77
2022/07/26 05:35:44;;;;;;;5.43;1.00;;;17.00;83.50;;;;;;5117796;27;20064;-78
2022/07/26 05:38:10;;;;;;;4.50;1.10;;;17.00;83.30;;;;;;5117793;27;20475;-79
2022/07/26 05:40:35;;;;;;;3.67;1.13;;;17.00;83.00;;;;;;5118003;27;20145;-80
2022/07/26 05:43:02;;;;;;;5.00;0.90;;;17.10;82.50;;;;;;5100813;27;20495;-77
2022/07/26 05:45:27;;;;;;;4.55;1.17;;;17.00;82.20;;;;;;5117603;27;20042;-79
2022/07/26 05:47:54;;;;;;;5.53;1.13;;;17.10;81.70;;;;;;5118198;27;20066;-75
2022/07/26 05:50:20;;;;;;;2.83;0.77;;;17.10;81.10;;;;;;5117606;27;20043;-80
2022/07/26 05:52:46;;;;;;;5.30;1.33;;;17.20;81.10;;;;;;5100587;27;20401;-79
2022/07/26 05:55:12;;;;;;;5.45;1.40;;;17.20;81.00;;;;;;5117237;27;20127;-78
2022/07/26 05:57:40;;;;;;;4.93;1.13;;;17.20;81.10;;;;;;5117862;27;20035;-79
2022/07/26 06:00:08;;;;;;;5.40;1.00;;;17.30;81.10;;;;;;5100375;27;20038;-78
2022/07/26 06:02:34;;;;;;;5.55;0.90;;;17.30;81.10;;;;;;5117673;27;20125;-79
2022/07/26 06:04:59;;;;;;;6.65;1.08;;;17.40;81.00;;;;;;5100205;27;20506;-79
2022/07/26 06:07:25;;;;;;;4.95;1.00;;;17.40;81.00;;;;;;5117538;27;20043;-78
2022/07/26 06:09:51;;;;;;;7.55;1.90;;;17.50;80.70;;;;;;5100497;27;20039;-80
2022/07/26 06:12:16;;;;;;;3.53;1.38;;;17.50;80.80;;;;;;5117326;27;20050;-79
2022/07/26 06:14:42;;;;;;;4.90;1.50;;;17.50;81.20;;;;;;5116823;27;20039;-80
2022/07/26 06:17:08;;;;;;;3.83;1.00;;;17.50;81.50;;;;;;5117075;27;20031;-78
2022/07/26 06:19:34;;;;;;;7.65;1.40;;;17.50;81.80;;;;;;5100272;27;20360;-78
2022/07/26 06:21:59;;;;;;;7.13;1.48;;;17.50;81.40;;;;;;5117012;27;20060;-80
2022/07/26 06:24:25;;;;;;;4.82;1.17;;;17.50;81.30;;;;;;5116875;27;20141;-79
2022/07/26 06:26:52;;;;;;;6.22;1.05;;;17.50;81.10;;;;;;5117136;27;20043;-79
2022/07/26 06:29:18;;;;;;;6.20;1.40;;;17.50;80.40;;;;;;5133732;27;20111;-77
2022/07/26 06:31:44;;;;;;;3.05;0.90;;;17.60;80.10;;;;;;5116736;27;20126;-78
2022/07/26 06:34:09;;;;;;;3.28;0.90;;;17.60;80.20;;;;;;5099918;27;20067;-77
2022/07/26 06:36:35;;;;;;;2.22;0.85;;;17.70;79.20;;;;;;5099781;27;20505;-77
2022/07/26 06:39:01;;;;;;;3.25;0.70;;;17.70;78.30;;;;;;5116885;27;20031;-77
2022/07/26 06:41:26;;;;;;;5.53;1.00;;;17.70;78.00;;;;;;5099263;27;20497;-77
2022/07/26 06:43:52;;;;;;;4.32;1.00;;;17.80;77.60;;;;;;5116351;27;20084;-75
2022/07/26 06:46:19;;;;;;;6.38;1.02;;;17.80;77.40;;;;;;5116459;27;20122;-76
2022/07/26 06:48:45;;;;;;;7.18;1.35;;;17.80;77.20;;;;;;5116397;27;20047;-75
2022/07/26 06:51:11;;;;;;;6.20;1.35;;;17.80;77.10;;;;;;5115969;27;20351;-76
2022/07/26 06:53:37;;;;;;;3.38;0.70;;;17.80;76.80;;;;;;5116258;27;20032;-76
2022/07/26 06:56:03;;;;;;;4.53;0.88;;;17.90;76.70;;;;;;5115279;27;20050;-76
2022/07/26 06:58:29;;;;;;;6.68;1.50;;;17.90;76.00;;;;;;5116129;28;20043;-77
2022/07/26 07:00:54;;;;;;;7.80;1.58;;;17.90;75.90;;;;;;5116390;27;20493;-75
2022/07/26 07:03:20;;;;;;;5.20;1.35;;;17.80;77.40;;;;;;5099205;27;20502;-76
2022/07/26 07:05:46;;;;;;;6.88;1.10;;;17.60;79.00;;;;;;5116142;27;20424;-73
2022/07/26 07:08:13;;;;;;;7.05;1.23;;;17.40;80.80;;;;;;5099135;27;20562;-75
2022/07/26 07:10:39;;;;;;;7.25;1.65;;;17.10;81.60;;;;;;5116087;27;20176;-74
2022/07/26 07:13:04;;;;;;;5.95;1.25;;;17.00;81.80;;;;;;5112401;27;20130;-75
2022/07/26 07:15:30;;;;;;;7.82;1.40;;;16.80;81.80;;;;;;5097295;27;20055;-76
2022/07/26 07:17:56;;;;;;;3.80;0.90;;;16.80;81.80;;;;;;5113708;27;20538;-76
2022/07/26 07:20:21;;;;;;;4.45;1.00;;;16.80;81.80;;;;;;5111089;28;20395;-75
2022/07/26 07:22:47;;;;;;;4.95;1.00;;;16.80;81.30;;;;;;5078218;28;20391;-74
2022/07/26 07:25:13;;;;;;;6.88;1.20;;;16.90;80.80;;;;;;5060659;28;20134;-75
2022/07/26 07:27:38;;;;;;;4.85;0.80;;;17.00;80.70;;;;;;5107651;28;20060;-77
2022/07/26 07:30:05;;;;;;;6.85;1.33;;;17.00;80.60;;;;;;5090556;28;20052;-77
2022/07/26 07:32:30;;;;;;;4.80;1.27;;;17.20;80.00;;;;;;5108361;28;20077;-77
2022/07/26 07:34:56;;;;;;;4.60;1.20;;;17.30;79.60;;;;;;5108842;28;20124;-76
2022/07/26 07:37:22;;;;;;;8.57;1.70;;;17.40;78.90;;;;;;5109035;28;20120;-78
2022/07/26 07:39:48;;;;;;;6.13;1.88;;;17.50;78.40;;;;;;5109147;28;20085;-77
2022/07/26 07:42:14;;;;;;;4.18;1.58;;;17.60;78.10;;;;;;5109041;28;20051;-78
2022/07/26 07:44:40;;;;;;;5.05;1.15;;;17.70;77.80;;;;;;5108666;28;20408;-76
2022/07/26 07:47:07;;;;;;;6.30;1.60;;;17.90;77.50;;;;;;5109109;28;20122;-78
2022/07/26 07:49:34;;;;;;;6.95;1.42;;;18.00;77.50;;;;;;5108695;28;20139;-77
2022/07/26 07:52:00;;;;;;;7.15;1.17;;;18.00;77.20;;;;;;5108697;28;20040;-77
2022/07/26 07:54:25;;;;;;;7.85;1.80;;;18.10;76.80;;;;;;5108808;28;20055;-77
2022/07/26 07:56:51;;;;;;;5.35;1.30;;;18.00;76.30;;;;;;5074853;28;20499;-75
2022/07/26 07:59:17;;;;;;;5.22;1.50;;;18.00;76.30;;;;;;5074974;28;20036;-73
2022/07/26 08:01:43;;;;;;;7.68;1.50;;;18.00;76.70;;;;;;5108608;28;20518;-75
2022/07/26 08:04:09;;;;;;;7.35;1.50;;;18.00;76.80;;;;;;5108522;28;20067;-77
2022/07/26 08:06:35;;;;;;;4.40;1.48;;;18.00;76.70;;;;;;5108565;28;20089;-75
2022/07/26 08:09:01;;;;;;;5.60;1.05;;;18.00;76.10;;;;;;5074717;28;20047;-77
2022/07/26 08:11:26;;;;;;;5.80;1.38;;;18.00;74.90;;;;;;5108524;28;20044;-79
2022/07/26 08:13:52;;;;;;;8.18;2.15;;;18.10;74.20;;;;;;5108552;28;20044;-81
2022/07/26 08:16:18;;;;;;;5.35;1.30;;;18.00;74.10;;;;;;5108528;28;20515;-79
2022/07/26 08:18:43;;;;;;;8.25;3.60;;;18.10;74.40;;;;;;5108435;28;20127;-75
2022/07/26 08:21:09;;;;;;;9.00;2.55;;;18.20;74.40;;;;;;5074648;28;20043;-74
2022/07/26 08:23:35;;;;;;;7.20;1.77;;;18.40;73.40;;;;;;5108619;28;20040;-78
2022/07/26 08:26:00;;;;;;;6.47;1.90;;;18.40;72.90;;;;;;5108376;28;20132;-76
2022/07/26 08:28:27;;;;;;;8.93;2.75;;;18.50;72.30;;;;;;5108070;28;20101;-77
2022/07/26 08:30:53;;;;;;;7.50;1.65;;;18.50;72.20;;;;;;5073642;28;20047;-77
2022/07/26 08:33:18;;;;;;;7.07;1.88;;;18.60;72.40;;;;;;5092160;28;20035;-76
2022/07/26 08:35:44;;;;;;;10.23;2.92;;;18.60;72.60;;;;;;5108491;28;20075;-78
2022/07/26 08:38:10;;;;;;;13.02;2.60;;;18.60;74.40;;;;;;5112446;28;20048;-74
2022/07/26 08:40:36;;;;;;;12.93;3.03;;;18.40;75.70;;;;;;5112151;28;20484;-76
2022/07/26 08:43:02;;;;;;;10.57;2.60;;;18.10;76.90;;;;;;5095056;28;20046;-76
2022/07/26 08:45:29;;;;;;;11.25;2.65;;;17.90;78.20;;;;;;5078168;28;20123;-76
2022/07/26 08:47:56;;;;;;;9.18;2.42;;;17.70;79.00;;;;;;5112019;28;20109;-75
2022/07/26 08:50:23;;;;;;;10.15;2.67;;;17.60;79.20;;;;;;5112044;28;20048;-76
2022/07/26 08:52:50;;;;;;;12.18;2.88;;;17.50;79.50;;;;;;5112117;28;20472;-77
2022/07/26 08:55:18;;;;;;;15.80;3.30;;;17.50;80.20;;;;;;5111713;28;20055;-74
2022/07/26 08:57:44;;;;;;;13.20;2.95;;;17.60;80.30;;;;;;5112145;28;20043;-76
2022/07/26 09:00:20;;;;;;;9.10;3.00;;;17.80;80.30;;;;;;5111805;28;20499;-75
2022/07/26 09:02:47;;;;;;;9.07;2.63;;;18.00;79.40;;;;;;5094726;28;20044;-76
2022/07/26 09:05:13;;;;;;;10.07;2.28;;;18.10;78.60;;;;;;5111926;28;20110;-74
2022/07/26 09:07:40;;;;;;;9.65;2.20;;;18.20;78.30;;;;;;5111912;28;20062;-78
2022/07/26 09:10:09;;;;;;;12.55;3.13;;;18.30;77.30;;;;;;5111634;28;20072;-76
2022/07/26 09:12:35;;;;;;;8.02;2.85;;;18.40;76.40;;;;;;5111531;28;20507;-77
2022/07/26 09:15:03;;;;;;;10.70;2.22;;;18.40;75.50;;;;;;5094357;28;20047;-76
2022/07/26 09:17:47;;;;;;;17.20;2.95;;;18.30;74.90;;;;;;5111798;28;20040;-74
2022/07/26 09:20:19;;;;;;;;;;;18.40;75.30;;;;;;5112148;28;20220;-75
2022/07/26 09:23:01;;;;;;;8.73;2.45;;;18.50;74.50;;;;;;5094503;28;19969;-73
2022/07/26 09:25:35;;;;;;;10.70;2.25;;;18.50;74.00;;;;;;5111340;28;20082;-76
2022/07/26 09:28:02;;;;;;;9.40;2.30;;;18.50;73.30;;;;;;5111103;28;20109;-77
2022/07/26 09:30:30;;;;;;;7.78;2.40;;;18.60;73.10;;;;;;5111489;28;20507;-77
2022/07/26 09:33:02;;;;;;;11.50;2.03;;;18.70;72.90;;;;;;5060652;28;20122;-76
2022/07/26 09:35:37;;;;;;;11.00;2.92;;;18.90;72.00;;;;;;5111024;28;20047;-75
2022/07/26 09:38:14;;;;;;;11.10;2.95;;;18.90;69.20;;;;;;5078575;28;20048;-74
2022/07/26 09:40:40;;;;;;;9.63;2.45;;;18.90;69.00;;;;;;5077421;28;20169;-79
2022/07/26 09:43:07;;;;;;;6.53;1.50;;;18.90;68.60;;;;;;5110943;28;20605;-77
2022/07/26 09:45:34;;;;;;;9.52;1.60;;;18.90;66.10;;;;;;5076951;28;20373;-77
2022/07/26 09:48:02;;;;;;;9.35;2.03;;;19.00;66.60;;;;;;5109962;28;20048;-74
2022/07/26 09:50:32;;;;;;;4.70;2.05;;;19.10;66.40;;;;;;5110820;28;20048;-77
2022/07/26 09:53:10;;;;;;;10.15;1.90;;;19.20;66.80;;;;;;5077217;28;20463;-77
2022/07/26 09:55:54;;;;;;;7.55;1.35;;;19.30;65.70;;;;;;5110556;28;20040;-75
2022/07/26 09:58:20;;;;;;;6.60;1.40;;;19.30;63.80;;;;;;5111022;28;20054;-76
2022/07/26 10:00:47;;;;;;;6.15;1.88;;;19.30;64.20;;;;;;5110847;28;20079;-76
2022/07/26 10:03:13;;;;;;;6.07;1.65;;;19.30;63.40;;;;;;5110532;28;20040;-74
2022/07/26 10:05:39;;;;;;;6.47;1.80;;;19.40;64.00;;;;;;5076624;28;20051;-77
2022/07/26 10:08:05;;;;;;;4.15;1.65;;;19.50;63.10;;;;;;5110430;28;20047;-75
2022/07/26 10:10:37;;;;;;;6.15;1.60;;;19.60;62.40;;;;;;5110615;28;20090;-75
2022/07/26 10:13:04;;;;;;;7.72;1.80;;;19.60;61.50;;;;;;5110333;28;20066;-78
2022/07/26 10:15:33;;;;;;;8.73;1.85;;;19.60;59.80;;;;;;5110190;28;20072;-76
2022/07/26 10:18:03;;;;;;;6.10;1.45;;;19.70;59.40;;;;;;5110287;28;20066;-80
2022/07/26 10:20:47;;;;;;;5.55;1.45;;;19.60;59.50;;;;;;5110515;28;20422;-76
2022/07/26 10:23:32;;;;;;;3.67;1.38;;;19.70;61.20;;;;;;5110194;28;20066;-75
2022/07/26 10:25:58;;;;;;;4.25;1.20;;;19.80;59.80;;;;;;5109994;28;20048;-75
2022/07/26 10:28:29;;;;;;;4.90;2.28;;;19.90;59.10;;;;;;5076116;28;20066;-78
2022/07/26 10:31:20;;;;;;;6.72;1.50;;;19.80;58.60;;;;;;5076205;28;20101;-78
2022/07/26 10:33:48;;;;;;;3.83;1.70;;;19.80;59.20;;;;;;5076114;28;20040;-75
2022/07/26 10:36:24;;;;;;;4.53;1.63;;;19.80;58.70;;;;;;5109715;28;20048;-79
2022/07/26 10:39:05;;;;;;;11.02;3.20;;;20.00;57.90;;;;;;5109910;28;20341;-76
2022/07/26 10:41:38;;;;;;;8.65;1.90;;;20.20;58.90;;;;;;5110051;28;20042;-78
2022/07/26 10:44:20;;;;;;;7.07;1.20;;;20.30;57.20;;;;;;5109808;28;20044;-76
2022/07/26 10:47:00;;;;;;;4.82;1.10;;;20.40;57.30;;;;;;5109612;28;20032;-78
2022/07/26 10:49:41;;;;;;;6.55;1.67;;;20.60;57.30;;;;;;5076105;28;20478;-75
2022/07/26 10:52:21;;;;;;;6.22;1.55;;;20.70;55.10;;;;;;5109634;28;20509;-75
2022/07/26 10:54:56;;;;;;;4.65;1.35;;;20.60;54.90;;;;;;5075546;28;20040;-77
2022/07/26 10:57:22;;;;;;;3.03;0.90;;;20.60;54.50;;;;;;5075718;28;20051;-78
2022/07/26 10:59:48;;;;;;;5.55;1.40;;;20.50;55.30;;;;;;5075861;28;20051;-75
2022/07/26 11:02:19;;;;;;;6.20;1.33;;;20.40;56.20;;;;;;5093717;28;20484;-76
2022/07/26 11:04:45;;;;;;;7.45;1.65;;;20.50;55.70;;;;;;5109552;28;20043;-78
2022/07/26 11:07:13;;;;;;;6.82;1.80;;;20.40;55.00;;;;;;5075618;28;20583;-77
2022/07/26 11:09:39;;;;;;;4.30;1.20;;;20.30;55.50;;;;;;5092356;28;20051;-77
2022/07/26 11:12:31;;;;;;;10.38;2.65;;;20.20;56.00;;;;;;5109269;28;20507;-78
2022/07/26 11:14:58;;;;;;;5.00;1.60;;;20.20;56.60;;;;;;5055645;28;20129;-77
2022/07/26 11:17:28;;;;;;;12.15;1.95;;;20.20;57.00;;;;;;5108689;28;20472;-78
2022/07/26 11:19:54;;;;;;;5.10;1.40;;;20.30;57.40;;;;;;5109167;28;20055;-75
2022/07/26 11:22:20;;;;;;;5.28;1.70;;;20.40;57.00;;;;;;5075692;28;20044;-75
2022/07/26 11:24:46;;;;;;;6.50;1.25;;;20.40;57.50;;;;;;5109053;28;20113;-76
2022/07/26 11:27:12;;;;;;;5.53;1.20;;;20.40;57.20;;;;;;5075284;28;20082;-75
2022/07/26 11:29:38;;;;;;;6.07;1.50;;;20.20;57.90;;;;;;5074946;28;20063;-78
2022/07/26 11:32:07;;;;;;;6.88;1.30;;;20.20;57.60;;;;;;5108929;28;20114;-78
2022/07/26 11:34:33;;;;;;;4.80;1.08;;;20.20;58.60;;;;;;5108989;28;20089;-78
2022/07/26 11:37:02;;;;;;;3.35;1.17;;;20.20;58.70;;;;;;5075367;28;20130;-75
2022/07/26 11:39:34;;;;;;;4.78;1.33;;;20.30;57.20;;;;;;5091917;28;20093;-77
2022/07/26 11:42:05;;;;;;;5.45;1.25;;;20.40;57.30;;;;;;5108863;28;20036;-76
2022/07/26 11:44:32;;;;;;;5.07;1.60;;;20.50;56.10;;;;;;5075010;28;20395;-75
2022/07/26 11:46:58;;;;;;;6.85;1.77;;;20.50;55.90;;;;;;5108892;28;20048;-78
2022/07/26 11:49:29;;;;;;;5.68;1.77;;;20.40;57.60;;;;;;5108918;28;20056;-77
2022/07/26 11:52:00;;;;;;;4.38;1.52;;;20.40;57.00;;;;;;5091716;28;20044;-78
2022/07/26 11:54:28;;;;;;;6.72;1.45;;;20.70;58.00;;;;;;5092871;28;20036;-74
2022/07/26 11:56:57;;;;;;;6.20;1.52;;;21.10;56.50;;;;;;5108612;28;20115;-76
2022/07/26 11:59:26;;;;;;;5.93;1.30;;;21.50;56.00;;;;;;5108640;28;20086;-78
2022/07/26 12:01:52;;;;;;;5.75;1.20;;;21.80;54.50;;;;;;5108808;28;20074;-78
2022/07/26 12:04:24;;;;;;;9.43;2.38;;;21.80;54.20;;;;;;5092840;28;20051;-76
2022/07/26 12:06:51;;;;;;;6.05;1.60;;;21.80;55.30;;;;;;5074761;28;20463;-79
2022/07/26 12:09:34;;;;;;;5.38;1.50;;;22.00;54.60;;;;;;5108517;28;20123;-76
2022/07/26 12:12:02;;;;;;;5.80;1.55;;;22.20;52.90;;;;;;5111130;28;20048;-76
2022/07/26 12:14:30;;;;;;;5.43;1.55;;;22.40;52.90;;;;;;5112567;28;20086;-77
2022/07/26 12:16:57;;;;;;;7.28;1.17;;;22.50;51.60;;;;;;5112925;28;20044;-77
2022/07/26 12:19:28;;;;;;;4.38;1.40;;;22.60;51.40;;;;;;5078930;28;20044;-76
2022/07/26 12:22:07;;;;;;;9.27;1.70;;;22.50;49.50;;;;;;5095783;28;20048;-75
2022/07/26 12:24:36;;;;;;;4.03;1.33;;;22.40;49.80;;;;;;5095701;28;20097;-76
2022/07/26 12:27:08;;;;;;;4.93;1.30;;;22.10;50.70;;;;;;5096680;28;20488;-77
2022/07/26 12:29:35;;;;;;;3.05;1.02;;;21.80;51.20;;;;;;5078365;28;20078;-75
2022/07/26 12:32:08;;;;;;;3.53;1.00;;;21.60;51.30;;;;;;5078712;28;20080;-78
2022/07/26 12:34:35;;;;;;;4.20;1.30;;;21.60;50.90;;;;;;5112276;28;20476;-78
2022/07/26 12:37:23;;;;;;;7.18;1.35;;;21.50;51.10;;;;;;5078398;28;20036;-76
2022/07/26 12:40:05;;;;;;;6.90;1.98;;;21.30;51.00;;;;;;5112262;28;20111;-79
2022/07/26 12:42:39;;;;;;;3.92;1.20;;;21.30;50.80;;;;;;5112158;28;20040;-77
2022/07/26 12:45:07;;;;;;;;;;;21.10;52.00;;;;;;5078801;28;20112;-76
2022/07/26 12:47:37;;;;;;;2.92;1.35;;;21.10;53.00;;;;;;5095155;28;19916;-75
2022/07/26 12:50:04;;;;;;;2.30;1.20;;;21.00;51.10;;;;;;5112038;28;20177;-75